sensor_id;sensor_type;location;lat;lon;timestamp;P1;durP1;ratioP1;P2;durP2;ratioP2
51034;SDS011;37062;52.546;13.230;2024-02-26T00:01:02;11.48;;;7.32;;
51034;SDS011;37062;52.546;13.230;2024-02-26T00:03:32;9.55;;;6.65;;
51034;SDS011;37062;52.546;13.230;2024-02-26T00:06:03;7.75;;;5.85;;
51034;SDS011;37062;52.546;13.230;2024-02-26T00:08:32;9.13;;;5.65;;
51034;SDS011;37062;52.546;13.230;2024-02-26T00:11:01;5.57;;;4.28;;
51034;SDS011;37062;52.546;13.230;2024-02-26T00:13:29;8.60;;;4.55;;
51034;SDS011;37062;52.546;13.230;2024-02-26T00:15:57;5.63;;;4.30;;
51034;SDS011;37062;52.546;13.230;2024-02-26T00:18:26;6.78;;;4.53;;
51034;SDS011;37062;52.546;13.230;2024-02-26T00:20:54;6.70;;;4.50;;
51034;SDS011;37062;52.546;13.230;2024-02-26T00:23:24;6.97;;;4.57;;
51034;SDS011;37062;52.546;13.230;2024-02-26T00:25:53;8.18;;;4.82;;
51034;SDS011;37062;52.546;13.230;2024-02-26T00:28:21;8.32;;;5.43;;
51034;SDS011;37062;52.546;13.230;2024-02-26T00:30:51;9.40;;;5.28;;
51034;SDS011;37062;52.546;13.230;2024-02-26T00:33:22;6.70;;;4.60;;
51034;SDS011;37062;52.546;13.230;2024-02-26T00:35:51;7.70;;;4.43;;
51034;SDS011;37062;52.546;13.230;2024-02-26T00:38:19;8.23;;;4.70;;
51034;SDS011;37062;52.546;13.230;2024-02-26T00:40:49;8.05;;;5.43;;
51034;SDS011;37062;52.546;13.230;2024-02-26T00:43:17;8.43;;;5.80;;
51034;SDS011;37062;52.546;13.230;2024-02-26T00:45:46;13.32;;;8.05;;
51034;SDS011;37062;52.546;13.230;2024-02-26T00:48:14;15.57;;;7.90;;
51034;SDS011;37062;52.546;13.230;2024-02-26T00:50:42;12.30;;;7.20;;
51034;SDS011;37062;52.546;13.230;2024-02-26T00:53:10;10.95;;;7.15;;
51034;SDS011;37062;52.546;13.230;2024-02-26T00:55:39;13.10;;;8.05;;
51034;SDS011;37062;52.546;13.230;2024-02-26T00:58:08;13.98;;;8.93;;
51034;SDS011;37062;52.546;13.230;2024-02-26T01:00:37;12.05;;;8.32;;
51034;SDS011;37062;52.546;13.230;2024-02-26T01:03:05;14.03;;;8.97;;
51034;SDS011;37062;52.546;13.230;2024-02-26T01:05:33;17.02;;;10.60;;
51034;SDS011;37062;52.546;13.230;2024-02-26T01:08:02;16.27;;;9.77;;
51034;SDS011;37062;52.546;13.230;2024-02-26T01:10:31;14.70;;;9.13;;
51034;SDS011;37062;52.546;13.230;2024-02-26T01:13:00;16.47;;;9.90;;
51034;SDS011;37062;52.546;13.230;2024-02-26T01:15:30;13.87;;;9.83;;
51034;SDS011;37062;52.546;13.230;2024-02-26T01:17:58;16.43;;;11.57;;
51034;SDS011;37062;52.546;13.230;2024-02-26T01:20:27;16.47;;;11.27;;
51034;SDS011;37062;52.546;13.230;2024-02-26T01:22:55;16.70;;;11.10;;
51034;SDS011;37062;52.546;13.230;2024-02-26T01:25:24;15.93;;;9.40;;
51034;SDS011;37062;52.546;13.230;2024-02-26T01:27:52;14.10;;;9.73;;
51034;SDS011;37062;52.546;13.230;2024-02-26T01:30:20;13.27;;;9.80;;
51034;SDS011;37062;52.546;13.230;2024-02-26T01:32:50;17.27;;;11.77;;
51034;SDS011;37062;52.546;13.230;2024-02-26T01:35:18;19.30;;;10.97;;
51034;SDS011;37062;52.546;13.230;2024-02-26T01:37:46;16.43;;;11.37;;
51034;SDS011;37062;52.546;13.230;2024-02-26T01:40:15;15.80;;;10.80;;
51034;SDS011;37062;52.546;13.230;2024-02-26T01:42:46;15.70;;;10.20;;
51034;SDS011;37062;52.546;13.230;2024-02-26T01:45:15;18.40;;;11.70;;
51034;SDS011;37062;52.546;13.230;2024-02-26T01:47:51;18.03;;;12.13;;
51034;SDS011;37062;52.546;13.230;2024-02-26T01:50:20;19.00;;;11.90;;
51034;SDS011;37062;52.546;13.230;2024-02-26T01:52:49;15.97;;;11.60;;
51034;SDS011;37062;52.546;13.230;2024-02-26T01:55:19;17.73;;;11.73;;
51034;SDS011;37062;52.546;13.230;2024-02-26T01:57:50;17.70;;;10.97;;
51034;SDS011;37062;52.546;13.230;2024-02-26T02:00:20;16.10;;;10.27;;
51034;SDS011;37062;52.546;13.230;2024-02-26T02:02:50;14.37;;;9.60;;
51034;SDS011;37062;52.546;13.230;2024-02-26T02:05:21;12.63;;;9.97;;
51034;SDS011;37062;52.546;13.230;2024-02-26T02:07:49;14.23;;;10.43;;
51034;SDS011;37062;52.546;13.230;2024-02-26T02:10:19;14.83;;;10.20;;
51034;SDS011;37062;52.546;13.230;2024-02-26T02:12:52;16.73;;;10.60;;
51034;SDS011;37062;52.546;13.230;2024-02-26T02:15:20;16.37;;;11.67;;
51034;SDS011;37062;52.546;13.230;2024-02-26T02:17:50;14.33;;;11.23;;
51034;SDS011;37062;52.546;13.230;2024-02-26T02:20:19;16.60;;;10.80;;
51034;SDS011;37062;52.546;13.230;2024-02-26T02:22:53;13.97;;;10.40;;
51034;SDS011;37062;52.546;13.230;2024-02-26T02:25:22;13.30;;;10.17;;
51034;SDS011;37062;52.546;13.230;2024-02-26T02:27:50;14.60;;;9.80;;
51034;SDS011;37062;52.546;13.230;2024-02-26T02:30:21;13.20;;;10.50;;
51034;SDS011;37062;52.546;13.230;2024-02-26T02:32:52;14.77;;;9.87;;
51034;SDS011;37062;52.546;13.230;2024-02-26T02:35:21;14.83;;;9.60;;
51034;SDS011;37062;52.546;13.230;2024-02-26T02:37:52;14.27;;;9.97;;
51034;SDS011;37062;52.546;13.230;2024-02-26T02:40:21;13.53;;;9.63;;
51034;SDS011;37062;52.546;13.230;2024-02-26T02:42:49;13.20;;;9.17;;
51034;SDS011;37062;52.546;13.230;2024-02-26T02:45:17;12.97;;;8.50;;
51034;SDS011;37062;52.546;13.230;2024-02-26T02:47:45;11.40;;;8.93;;
51034;SDS011;37062;52.546;13.230;2024-02-26T02:50:14;15.67;;;10.47;;
51034;SDS011;37062;52.546;13.230;2024-02-26T02:52:42;13.53;;;10.07;;
51034;SDS011;37062;52.546;13.230;2024-02-26T02:55:13;12.47;;;9.67;;
51034;SDS011;37062;52.546;13.230;2024-02-26T02:57:42;14.10;;;9.77;;
51034;SDS011;37062;52.546;13.230;2024-02-26T03:00:11;13.73;;;8.80;;
51034;SDS011;37062;52.546;13.230;2024-02-26T03:02:40;13.67;;;9.13;;
51034;SDS011;37062;52.546;13.230;2024-02-26T03:05:09;14.20;;;10.43;;
51034;SDS011;37062;52.546;13.230;2024-02-26T03:07:37;13.77;;;9.40;;
51034;SDS011;37062;52.546;13.230;2024-02-26T03:10:06;13.87;;;9.43;;
51034;SDS011;37062;52.546;13.230;2024-02-26T03:12:36;12.35;;;9.63;;
51034;SDS011;37062;52.546;13.230;2024-02-26T03:15:04;13.40;;;9.73;;
51034;SDS011;37062;52.546;13.230;2024-02-26T03:17:33;13.03;;;9.20;;
51034;SDS011;37062;52.546;13.230;2024-02-26T03:20:02;14.03;;;9.47;;
51034;SDS011;37062;52.546;13.230;2024-02-26T03:22:31;12.20;;;8.47;;
51034;SDS011;37062;52.546;13.230;2024-02-26T03:25:00;12.10;;;8.63;;
51034;SDS011;37062;52.546;13.230;2024-02-26T03:27:28;12.03;;;8.17;;
51034;SDS011;37062;52.546;13.230;2024-02-26T03:29:57;10.47;;;7.53;;
51034;SDS011;37062;52.546;13.230;2024-02-26T03:32:26;12.73;;;8.13;;
51034;SDS011;37062;52.546;13.230;2024-02-26T03:34:54;11.87;;;7.40;;
51034;SDS011;37062;52.546;13.230;2024-02-26T03:37:23;8.27;;;7.03;;
51034;SDS011;37062;52.546;13.230;2024-02-26T03:39:51;10.57;;;7.80;;
51034;SDS011;37062;52.546;13.230;2024-02-26T03:42:19;11.17;;;7.67;;
51034;SDS011;37062;52.546;13.230;2024-02-26T03:44:48;10.67;;;7.40;;
51034;SDS011;37062;52.546;13.230;2024-02-26T03:47:18;10.13;;;7.03;;
51034;SDS011;37062;52.546;13.230;2024-02-26T03:49:46;9.10;;;7.43;;
51034;SDS011;37062;52.546;13.230;2024-02-26T03:52:14;8.63;;;7.50;;
51034;SDS011;37062;52.546;13.230;2024-02-26T03:54:43;10.60;;;7.30;;
51034;SDS011;37062;52.546;13.230;2024-02-26T03:57:11;9.80;;;6.87;;
51034;SDS011;37062;52.546;13.230;2024-02-26T03:59:39;10.10;;;6.83;;
51034;SDS011;37062;52.546;13.230;2024-02-26T04:02:08;9.27;;;7.00;;
51034;SDS011;37062;52.546;13.230;2024-02-26T04:04:38;9.97;;;6.90;;
51034;SDS011;37062;52.546;13.230;2024-02-26T04:07:06;9.13;;;6.83;;
51034;SDS011;37062;52.546;13.230;2024-02-26T04:09:34;8.73;;;6.90;;
51034;SDS011;37062;52.546;13.230;2024-02-26T04:12:03;9.73;;;6.73;;
51034;SDS011;37062;52.546;13.230;2024-02-26T04:14:32;8.47;;;6.80;;
51034;SDS011;37062;52.546;13.230;2024-02-26T04:17:00;10.20;;;7.17;;
51034;SDS011;37062;52.546;13.230;2024-02-26T04:19:28;9.70;;;6.80;;
51034;SDS011;37062;52.546;13.230;2024-02-26T04:21:58;8.77;;;6.30;;
51034;SDS011;37062;52.546;13.230;2024-02-26T04:24:27;9.17;;;6.40;;
51034;SDS011;37062;52.546;13.230;2024-02-26T04:26:55;9.50;;;6.00;;
51034;SDS011;37062;52.546;13.230;2024-02-26T04:29:24;7.60;;;5.47;;
51034;SDS011;37062;52.546;13.230;2024-02-26T04:31:52;8.23;;;5.77;;
51034;SDS011;37062;52.546;13.230;2024-02-26T04:34:20;13.00;;;6.73;;
51034;SDS011;37062;52.546;13.230;2024-02-26T04:36:49;9.50;;;6.33;;
51034;SDS011;37062;52.546;13.230;2024-02-26T04:39:18;9.47;;;6.60;;
51034;SDS011;37062;52.546;13.230;2024-02-26T04:41:47;7.73;;;6.10;;
51034;SDS011;37062;52.546;13.230;2024-02-26T04:44:15;10.20;;;6.33;;
51034;SDS011;37062;52.546;13.230;2024-02-26T04:46:43;10.13;;;5.93;;
51034;SDS011;37062;52.546;13.230;2024-02-26T04:49:11;9.13;;;6.27;;
51034;SDS011;37062;52.546;13.230;2024-02-26T04:51:40;9.03;;;6.43;;
51034;SDS011;37062;52.546;13.230;2024-02-26T04:54:08;6.83;;;5.17;;
51034;SDS011;37062;52.546;13.230;2024-02-26T04:56:37;13.30;;;6.17;;
51034;SDS011;37062;52.546;13.230;2024-02-26T04:59:06;7.90;;;5.60;;
51034;SDS011;37062;52.546;13.230;2024-02-26T05:01:34;8.57;;;6.10;;
51034;SDS011;37062;52.546;13.230;2024-02-26T05:04:03;8.47;;;6.33;;
51034;SDS011;37062;52.546;13.230;2024-02-26T05:06:31;7.33;;;6.13;;
51034;SDS011;37062;52.546;13.230;2024-02-26T05:09:00;7.80;;;6.60;;
51034;SDS011;37062;52.546;13.230;2024-02-26T05:11:30;9.57;;;6.73;;
51034;SDS011;37062;52.546;13.230;2024-02-26T05:14:00;10.30;;;7.37;;
51034;SDS011;37062;52.546;13.230;2024-02-26T05:16:28;9.10;;;7.03;;
51034;SDS011;37062;52.546;13.230;2024-02-26T05:18:57;12.10;;;7.57;;
51034;SDS011;37062;52.546;13.230;2024-02-26T05:21:25;10.80;;;6.63;;
51034;SDS011;37062;52.546;13.230;2024-02-26T05:23:54;8.73;;;6.20;;
51034;SDS011;37062;52.546;13.230;2024-02-26T05:26:22;7.90;;;6.33;;
51034;SDS011;37062;52.546;13.230;2024-02-26T05:28:50;10.93;;;7.03;;
51034;SDS011;37062;52.546;13.230;2024-02-26T05:31:20;9.70;;;6.77;;
51034;SDS011;37062;52.546;13.230;2024-02-26T05:33:49;9.13;;;7.17;;
51034;SDS011;37062;52.546;13.230;2024-02-26T05:36:18;9.70;;;6.53;;
51034;SDS011;37062;52.546;13.230;2024-02-26T05:38:47;12.67;;;7.10;;
51034;SDS011;37062;52.546;13.230;2024-02-26T05:41:16;9.13;;;6.90;;
51034;SDS011;37062;52.546;13.230;2024-02-26T05:43:49;11.73;;;6.67;;
51034;SDS011;37062;52.546;13.230;2024-02-26T05:46:18;7.97;;;6.30;;
51034;SDS011;37062;52.546;13.230;2024-02-26T05:48:48;9.77;;;7.30;;
51034;SDS011;37062;52.546;13.230;2024-02-26T05:51:19;8.57;;;6.63;;
51034;SDS011;37062;52.546;13.230;2024-02-26T05:53:48;9.43;;;7.40;;
51034;SDS011;37062;52.546;13.230;2024-02-26T05:56:21;9.67;;;7.40;;
51034;SDS011;37062;52.546;13.230;2024-02-26T05:58:50;12.33;;;7.47;;
51034;SDS011;37062;52.546;13.230;2024-02-26T06:01:20;10.33;;;7.87;;
51034;SDS011;37062;52.546;13.230;2024-02-26T06:03:49;10.30;;;7.30;;
51034;SDS011;37062;52.546;13.230;2024-02-26T06:06:18;11.47;;;7.37;;
51034;SDS011;37062;52.546;13.230;2024-02-26T06:08:49;9.20;;;7.30;;
51034;SDS011;37062;52.546;13.230;2024-02-26T06:11:17;8.47;;;6.70;;
51034;SDS011;37062;52.546;13.230;2024-02-26T06:13:46;10.40;;;7.03;;
51034;SDS011;37062;52.546;13.230;2024-02-26T06:16:14;10.70;;;7.40;;
51034;SDS011;37062;52.546;13.230;2024-02-26T06:18:44;11.10;;;7.23;;
51034;SDS011;37062;52.546;13.230;2024-02-26T06:21:12;14.97;;;8.20;;
51034;SDS011;37062;52.546;13.230;2024-02-26T06:23:40;9.57;;;7.43;;
51034;SDS011;37062;52.546;13.230;2024-02-26T06:26:09;10.30;;;7.50;;
51034;SDS011;37062;52.546;13.230;2024-02-26T06:28:37;11.63;;;8.20;;
51034;SDS011;37062;52.546;13.230;2024-02-26T06:31:07;10.63;;;7.20;;
51034;SDS011;37062;52.546;13.230;2024-02-26T06:33:36;13.10;;;8.60;;
51034;SDS011;37062;52.546;13.230;2024-02-26T06:36:06;11.97;;;8.50;;
51034;SDS011;37062;52.546;13.230;2024-02-26T06:38:34;13.00;;;8.93;;
51034;SDS011;37062;52.546;13.230;2024-02-26T06:41:03;11.23;;;8.77;;
51034;SDS011;37062;52.546;13.230;2024-02-26T06:43:31;13.50;;;8.13;;
51034;SDS011;37062;52.546;13.230;2024-02-26T06:45:59;9.77;;;7.17;;
51034;SDS011;37062;52.546;13.230;2024-02-26T06:48:27;9.63;;;7.37;;
51034;SDS011;37062;52.546;13.230;2024-02-26T06:50:56;13.67;;;7.83;;
51034;SDS011;37062;52.546;13.230;2024-02-26T06:53:26;11.45;;;7.88;;
51034;SDS011;37062;52.546;13.230;2024-02-26T06:55:54;10.63;;;8.10;;
51034;SDS011;37062;52.546;13.230;2024-02-26T06:58:22;11.90;;;8.50;;
51034;SDS011;37062;52.546;13.230;2024-02-26T07:00:50;15.63;;;8.68;;
51034;SDS011;37062;52.546;13.230;2024-02-26T07:03:19;13.07;;;8.52;;
51034;SDS011;37062;52.546;13.230;2024-02-26T07:05:49;10.52;;;7.97;;
51034;SDS011;37062;52.546;13.230;2024-02-26T07:08:18;13.02;;;8.18;;
51034;SDS011;37062;52.546;13.230;2024-02-26T07:10:49;10.18;;;7.93;;
51034;SDS011;37062;52.546;13.230;2024-02-26T07:13:17;9.95;;;7.72;;
51034;SDS011;37062;52.546;13.230;2024-02-26T07:15:45;12.02;;;7.63;;
51034;SDS011;37062;52.546;13.230;2024-02-26T07:18:13;11.60;;;7.40;;
51034;SDS011;37062;52.546;13.230;2024-02-26T07:20:42;11.48;;;6.97;;
51034;SDS011;37062;52.546;13.230;2024-02-26T07:23:10;11.02;;;8.10;;
51034;SDS011;37062;52.546;13.230;2024-02-26T07:25:39;8.98;;;7.55;;
51034;SDS011;37062;52.546;13.230;2024-02-26T07:28:10;11.00;;;8.27;;
51034;SDS011;37062;52.546;13.230;2024-02-26T07:30:38;13.00;;;7.88;;
51034;SDS011;37062;52.546;13.230;2024-02-26T07:33:07;11.60;;;7.43;;
51034;SDS011;37062;52.546;13.230;2024-02-26T07:35:35;9.85;;;7.90;;
51034;SDS011;37062;52.546;13.230;2024-02-26T07:38:05;9.50;;;7.30;;
51034;SDS011;37062;52.546;13.230;2024-02-26T07:40:45;9.32;;;6.63;;
51034;SDS011;37062;52.546;13.230;2024-02-26T07:43:26;11.60;;;7.97;;
51034;SDS011;37062;52.546;13.230;2024-02-26T07:45:54;13.40;;;7.80;;
51034;SDS011;37062;52.546;13.230;2024-02-26T07:48:22;9.70;;;7.43;;
51034;SDS011;37062;52.546;13.230;2024-02-26T07:50:51;10.10;;;7.30;;
51034;SDS011;37062;52.546;13.230;2024-02-26T07:53:19;9.77;;;7.93;;
51034;SDS011;37062;52.546;13.230;2024-02-26T07:55:48;12.35;;;8.48;;
51034;SDS011;37062;52.546;13.230;2024-02-26T07:58:16;11.52;;;9.10;;
51034;SDS011;37062;52.546;13.230;2024-02-26T08:00:45;11.63;;;8.82;;
51034;SDS011;37062;52.546;13.230;2024-02-26T08:03:14;12.15;;;9.55;;
51034;SDS011;37062;52.546;13.230;2024-02-26T08:05:43;10.23;;;8.48;;
51034;SDS011;37062;52.546;13.230;2024-02-26T08:08:11;11.82;;;9.50;;
51034;SDS011;37062;52.546;13.230;2024-02-26T08:10:39;15.10;;;9.25;;
51034;SDS011;37062;52.546;13.230;2024-02-26T08:13:08;14.30;;;9.18;;
51034;SDS011;37062;52.546;13.230;2024-02-26T08:15:36;11.40;;;9.18;;
51034;SDS011;37062;52.546;13.230;2024-02-26T08:18:06;14.90;;;10.30;;
51034;SDS011;37062;52.546;13.230;2024-02-26T08:20:34;16.40;;;10.88;;
51034;SDS011;37062;52.546;13.230;2024-02-26T08:23:04;15.93;;;10.00;;
51034;SDS011;37062;52.546;13.230;2024-02-26T08:25:32;18.70;;;10.02;;
51034;SDS011;37062;52.546;13.230;2024-02-26T08:28:01;13.18;;;10.18;;
51034;SDS011;37062;52.546;13.230;2024-02-26T08:30:29;13.15;;;10.00;;
51034;SDS011;37062;52.546;13.230;2024-02-26T08:32:57;17.48;;;10.77;;
51034;SDS011;37062;52.546;13.230;2024-02-26T08:35:27;14.13;;;10.32;;
51034;SDS011;37062;52.546;13.230;2024-02-26T08:37:55;13.05;;;9.80;;
51034;SDS011;37062;52.546;13.230;2024-02-26T08:40:24;20.45;;;11.05;;
51034;SDS011;37062;52.546;13.230;2024-02-26T08:42:52;18.98;;;11.13;;
51034;SDS011;37062;52.546;13.230;2024-02-26T08:45:20;17.20;;;10.80;;
51034;SDS011;37062;52.546;13.230;2024-02-26T08:47:51;13.15;;;10.27;;
51034;SDS011;37062;52.546;13.230;2024-02-26T08:50:20;15.80;;;11.18;;
51034;SDS011;37062;52.546;13.230;2024-02-26T08:52:49;15.57;;;10.55;;
51034;SDS011;37062;52.546;13.230;2024-02-26T08:55:19;17.08;;;11.18;;
51034;SDS011;37062;52.546;13.230;2024-02-26T08:57:47;14.85;;;11.48;;
51034;SDS011;37062;52.546;13.230;2024-02-26T09:00:16;13.43;;;11.60;;
51034;SDS011;37062;52.546;13.230;2024-02-26T09:02:47;16.35;;;11.52;;
51034;SDS011;37062;52.546;13.230;2024-02-26T09:05:16;16.85;;;11.48;;
51034;SDS011;37062;52.546;13.230;2024-02-26T09:07:44;18.17;;;12.80;;
51034;SDS011;37062;52.546;13.230;2024-02-26T09:10:14;16.70;;;11.55;;
51034;SDS011;37062;52.546;13.230;2024-02-26T09:12:43;17.65;;;11.82;;
51034;SDS011;37062;52.546;13.230;2024-02-26T09:15:14;15.98;;;12.00;;
51034;SDS011;37062;52.546;13.230;2024-02-26T09:17:42;16.63;;;12.57;;
51034;SDS011;37062;52.546;13.230;2024-02-26T09:20:12;15.02;;;11.60;;
51034;SDS011;37062;52.546;13.230;2024-02-26T09:22:41;15.65;;;12.32;;
51034;SDS011;37062;52.546;13.230;2024-02-26T09:25:09;19.52;;;12.18;;
51034;SDS011;37062;52.546;13.230;2024-02-26T09:27:39;21.52;;;12.73;;
51034;SDS011;37062;52.546;13.230;2024-02-26T09:30:09;18.80;;;12.48;;
51034;SDS011;37062;52.546;13.230;2024-02-26T09:32:38;16.63;;;12.38;;
51034;SDS011;37062;52.546;13.230;2024-02-26T09:35:07;17.00;;;12.10;;
51034;SDS011;37062;52.546;13.230;2024-02-26T09:37:35;15.02;;;10.77;;
51034;SDS011;37062;52.546;13.230;2024-02-26T09:40:04;16.50;;;11.32;;
51034;SDS011;37062;52.546;13.230;2024-02-26T09:42:33;15.63;;;11.43;;
51034;SDS011;37062;52.546;13.230;2024-02-26T09:45:05;15.30;;;11.55;;
51034;SDS011;37062;52.546;13.230;2024-02-26T09:47:36;17.23;;;11.82;;
51034;SDS011;37062;52.546;13.230;2024-02-26T09:50:06;15.75;;;11.50;;
51034;SDS011;37062;52.546;13.230;2024-02-26T09:52:38;18.95;;;11.88;;
51034;SDS011;37062;52.546;13.230;2024-02-26T09:55:09;18.90;;;12.35;;
51034;SDS011;37062;52.546;13.230;2024-02-26T09:57:38;15.52;;;11.45;;
51034;SDS011;37062;52.546;13.230;2024-02-26T10:00:15;21.02;;;11.85;;
51034;SDS011;37062;52.546;13.230;2024-02-26T10:02:47;17.75;;;11.55;;
51034;SDS011;37062;52.546;13.230;2024-02-26T10:05:16;13.73;;;10.98;;
51034;SDS011;37062;52.546;13.230;2024-02-26T10:07:46;18.85;;;11.95;;
51034;SDS011;37062;52.546;13.230;2024-02-26T10:10:14;15.38;;;11.35;;
51034;SDS011;37062;52.546;13.230;2024-02-26T10:12:46;17.83;;;11.88;;
51034;SDS011;37062;52.546;13.230;2024-02-26T10:15:19;15.23;;;11.02;;
51034;SDS011;37062;52.546;13.230;2024-02-26T10:17:47;15.90;;;11.88;;
51034;SDS011;37062;52.546;13.230;2024-02-26T10:20:16;22.23;;;12.18;;
51034;SDS011;37062;52.546;13.230;2024-02-26T10:22:45;15.32;;;11.23;;
51034;SDS011;37062;52.546;13.230;2024-02-26T10:25:14;17.13;;;10.50;;
51034;SDS011;37062;52.546;13.230;2024-02-26T10:27:42;13.75;;;10.23;;
51034;SDS011;37062;52.546;13.230;2024-02-26T10:30:21;16.65;;;11.30;;
51034;SDS011;37062;52.546;13.230;2024-02-26T10:32:52;17.73;;;10.82;;
51034;SDS011;37062;52.546;13.230;2024-02-26T10:35:21;14.98;;;10.82;;
51034;SDS011;37062;52.546;13.230;2024-02-26T10:37:50;16.42;;;11.02;;
51034;SDS011;37062;52.546;13.230;2024-02-26T10:40:20;14.93;;;10.93;;
51034;SDS011;37062;52.546;13.230;2024-02-26T10:42:48;16.20;;;10.50;;
51034;SDS011;37062;52.546;13.230;2024-02-26T10:45:16;16.60;;;10.90;;
51034;SDS011;37062;52.546;13.230;2024-02-26T10:47:46;16.75;;;10.77;;
51034;SDS011;37062;52.546;13.230;2024-02-26T10:50:15;12.77;;;8.77;;
51034;SDS011;37062;52.546;13.230;2024-02-26T10:52:44;13.55;;;9.93;;
51034;SDS011;37062;52.546;13.230;2024-02-26T10:55:13;11.32;;;8.90;;
51034;SDS011;37062;52.546;13.230;2024-02-26T10:57:46;12.57;;;9.68;;
51034;SDS011;37062;52.546;13.230;2024-02-26T11:00:16;13.10;;;9.70;;
51034;SDS011;37062;52.546;13.230;2024-02-26T11:02:46;14.25;;;9.50;;
51034;SDS011;37062;52.546;13.230;2024-02-26T11:05:16;10.05;;;8.25;;
51034;SDS011;37062;52.546;13.230;2024-02-26T11:07:45;12.18;;;8.38;;
51034;SDS011;37062;52.546;13.230;2024-02-26T11:10:14;10.90;;;8.00;;
51034;SDS011;37062;52.546;13.230;2024-02-26T11:12:44;16.58;;;9.27;;
51034;SDS011;37062;52.546;13.230;2024-02-26T11:15:14;10.25;;;9.13;;
51034;SDS011;37062;52.546;13.230;2024-02-26T11:17:43;10.27;;;8.20;;
51034;SDS011;37062;52.546;13.230;2024-02-26T11:20:15;11.68;;;9.43;;
51034;SDS011;37062;52.546;13.230;2024-02-26T11:22:45;11.20;;;8.23;;
51034;SDS011;37062;52.546;13.230;2024-02-26T11:25:13;10.90;;;8.40;;
51034;SDS011;37062;52.546;13.230;2024-02-26T11:27:45;12.57;;;8.18;;
51034;SDS011;37062;52.546;13.230;2024-02-26T11:30:16;11.68;;;8.50;;
51034;SDS011;37062;52.546;13.230;2024-02-26T11:32:46;9.95;;;8.10;;
51034;SDS011;37062;52.546;13.230;2024-02-26T11:35:16;10.10;;;7.30;;
51034;SDS011;37062;52.546;13.230;2024-02-26T11:37:52;9.88;;;7.07;;
51034;SDS011;37062;52.546;13.230;2024-02-26T11:40:22;12.88;;;6.78;;
51034;SDS011;37062;52.546;13.230;2024-02-26T11:42:51;9.43;;;6.40;;
51034;SDS011;37062;52.546;13.230;2024-02-26T11:48:22;9.48;;;7.15;;
51034;SDS011;37062;52.546;13.230;2024-02-26T11:50:54;8.68;;;6.63;;
51034;SDS011;37062;52.546;13.230;2024-02-26T11:53:23;10.82;;;7.32;;
51034;SDS011;37062;52.546;13.230;2024-02-26T11:58:40;10.40;;;7.20;;
51034;SDS011;37062;52.546;13.230;2024-02-26T12:04:11;10.50;;;7.10;;
51034;SDS011;37062;52.546;13.230;2024-02-26T12:06:44;10.52;;;6.85;;
51034;SDS011;37062;52.546;13.230;2024-02-26T12:12:05;10.52;;;6.88;;
51034;SDS011;37062;52.546;13.230;2024-02-26T12:14:37;10.45;;;7.82;;
51034;SDS011;37062;52.546;13.230;2024-02-26T12:17:06;7.90;;;6.47;;
51034;SDS011;37062;52.546;13.230;2024-02-26T12:19:35;9.75;;;6.68;;
51034;SDS011;37062;52.546;13.230;2024-02-26T12:22:11;10.40;;;7.60;;
51034;SDS011;37062;52.546;13.230;2024-02-26T12:24:41;8.57;;;6.93;;
51034;SDS011;37062;52.546;13.230;2024-02-26T12:27:09;11.35;;;6.88;;
51034;SDS011;37062;52.546;13.230;2024-02-26T12:29:39;13.57;;;8.10;;
51034;SDS011;37062;52.546;13.230;2024-02-26T12:32:07;9.50;;;7.47;;
51034;SDS011;37062;52.546;13.230;2024-02-26T12:34:37;9.57;;;7.20;;
51034;SDS011;37062;52.546;13.230;2024-02-26T12:37:05;10.75;;;6.50;;
51034;SDS011;37062;52.546;13.230;2024-02-26T12:39:38;7.70;;;5.72;;
51034;SDS011;37062;52.546;13.230;2024-02-26T12:42:06;9.68;;;6.32;;
51034;SDS011;37062;52.546;13.230;2024-02-26T12:44:35;6.53;;;5.82;;
51034;SDS011;37062;52.546;13.230;2024-02-26T12:47:03;8.75;;;6.05;;
51034;SDS011;37062;52.546;13.230;2024-02-26T12:49:32;7.13;;;5.90;;
51034;SDS011;37062;52.546;13.230;2024-02-26T12:52:00;10.23;;;5.43;;
51034;SDS011;37062;52.546;13.230;2024-02-26T12:54:30;6.90;;;5.22;;
51034;SDS011;37062;52.546;13.230;2024-02-26T12:57:01;13.68;;;5.35;;
51034;SDS011;37062;52.546;13.230;2024-02-26T12:59:33;7.55;;;5.47;;
51034;SDS011;37062;52.546;13.230;2024-02-26T13:02:03;7.45;;;4.82;;
51034;SDS011;37062;52.546;13.230;2024-02-26T13:04:34;6.55;;;4.72;;
51034;SDS011;37062;52.546;13.230;2024-02-26T13:07:03;4.80;;;3.95;;
51034;SDS011;37062;52.546;13.230;2024-02-26T13:09:32;5.05;;;4.38;;
51034;SDS011;37062;52.546;13.230;2024-02-26T13:12:05;5.72;;;4.10;;
51034;SDS011;37062;52.546;13.230;2024-02-26T13:14:34;8.15;;;4.47;;
51034;SDS011;37062;52.546;13.230;2024-02-26T13:17:03;6.05;;;3.92;;
51034;SDS011;37062;52.546;13.230;2024-02-26T13:19:32;6.18;;;2.80;;
51034;SDS011;37062;52.546;13.230;2024-02-26T13:22:04;4.55;;;3.05;;
51034;SDS011;37062;52.546;13.230;2024-02-26T13:24:34;4.57;;;2.88;;
51034;SDS011;37062;52.546;13.230;2024-02-26T13:27:04;3.17;;;2.03;;
51034;SDS011;37062;52.546;13.230;2024-02-26T13:29:33;3.00;;;1.80;;
51034;SDS011;37062;52.546;13.230;2024-02-26T13:32:02;4.28;;;2.10;;
51034;SDS011;37062;52.546;13.230;2024-02-26T13:34:32;2.92;;;1.90;;
51034;SDS011;37062;52.546;13.230;2024-02-26T13:37:02;3.10;;;1.88;;
51034;SDS011;37062;52.546;13.230;2024-02-26T13:39:32;3.47;;;2.50;;
51034;SDS011;37062;52.546;13.230;2024-02-26T13:42:02;4.68;;;1.98;;
51034;SDS011;37062;52.546;13.230;2024-02-26T13:44:32;2.58;;;1.70;;
51034;SDS011;37062;52.546;13.230;2024-02-26T13:47:03;2.53;;;1.90;;
51034;SDS011;37062;52.546;13.230;2024-02-26T13:49:31;2.33;;;1.90;;
51034;SDS011;37062;52.546;13.230;2024-02-26T13:52:00;3.70;;;2.17;;
51034;SDS011;37062;52.546;13.230;2024-02-26T13:54:28;3.20;;;2.00;;
51034;SDS011;37062;52.546;13.230;2024-02-26T13:56:57;5.55;;;1.95;;
51034;SDS011;37062;52.546;13.230;2024-02-26T13:59:25;3.00;;;2.13;;
51034;SDS011;37062;52.546;13.230;2024-02-26T14:01:54;2.17;;;1.80;;
51034;SDS011;37062;52.546;13.230;2024-02-26T14:04:23;6.63;;;2.10;;
51034;SDS011;37062;52.546;13.230;2024-02-26T14:06:51;5.50;;;2.30;;
51034;SDS011;37062;52.546;13.230;2024-02-26T14:09:20;3.50;;;1.90;;
51034;SDS011;37062;52.546;13.230;2024-02-26T14:11:58;2.85;;;1.95;;
51034;SDS011;37062;52.546;13.230;2024-02-26T14:14:27;2.95;;;2.40;;
51034;SDS011;37062;52.546;13.230;2024-02-26T14:17:00;4.22;;;2.70;;
51034;SDS011;37062;52.546;13.230;2024-02-26T14:19:30;4.18;;;2.20;;
51034;SDS011;37062;52.546;13.230;2024-02-26T14:21:58;4.97;;;2.75;;
51034;SDS011;37062;52.546;13.230;2024-02-26T14:24:26;6.47;;;2.75;;
51034;SDS011;37062;52.546;13.230;2024-02-26T14:26:54;5.05;;;3.17;;
51034;SDS011;37062;52.546;13.230;2024-02-26T14:29:23;4.15;;;2.63;;
51034;SDS011;37062;52.546;13.230;2024-02-26T14:31:51;3.40;;;2.25;;
51034;SDS011;37062;52.546;13.230;2024-02-26T14:34:20;4.03;;;2.72;;
51034;SDS011;37062;52.546;13.230;2024-02-26T14:36:49;4.13;;;2.70;;
51034;SDS011;37062;52.546;13.230;2024-02-26T14:39:17;4.25;;;3.20;;
51034;SDS011;37062;52.546;13.230;2024-02-26T14:41:46;5.07;;;3.30;;
51034;SDS011;37062;52.546;13.230;2024-02-26T14:44:15;5.45;;;3.30;;
51034;SDS011;37062;52.546;13.230;2024-02-26T14:46:43;5.82;;;3.80;;